Time;durP1;ratioP1;P1;durP2;ratioP2;P2;SDS_P1;SDS_P2;PMS_P1;PMS_P2;Temp;Humidity;BMP_temperature;BMP_pressure;BME280_temperature;BME280_humidity;BME280_pressure;Samples;Min_cycle;Max_cycle;Signal;HPM_P1;HPM_P2
2023/01/06 00:01:11;;;;;;;57.45;26.80;;;;;;;;;;5110822;28;20043;-72
2023/01/06 00:03:37;;;;;;;57.80;27.92;;;;;;;;;;5113532;28;20047;-72
2023/01/06 00:06:04;;;;;;;62.33;26.92;;;;;;;;;;5113552;28;20040;-72
2023/01/06 00:08:30;;;;;;;61.13;26.50;;;;;;;;;;5112576;28;20110;-72
2023/01/06 00:10:56;;;;;;;51.35;26.33;;;;;;;;;;5114799;27;20047;-72
2023/01/06 00:13:23;;;;;;;54.83;25.30;;;;;;;;;;5110208;28;20051;-72
2023/01/06 00:15:49;;;;;;;54.30;26.10;;;;;;;;;;5113684;28;20385;-72
2023/01/06 00:18:15;;;;;;;55.33;26.27;;;;;;;;;;5112322;28;20054;-72
2023/01/06 00:20:41;;;;;;;59.28;27.42;;;;;;;;;;5113974;28;20481;-72
2023/01/06 00:23:07;;;;;;;55.03;26.63;;;;;;;;;;5111597;28;20058;-72
2023/01/06 00:25:33;;;;;;;52.22;26.75;;;;;;;;;;5112854;28;20047;-72
2023/01/06 00:27:59;;;;;;;59.40;27.85;;;;;;;;;;5113338;28;20039;-70
2023/01/06 00:30:25;;;;;;;48.65;27.92;;;;;;;;;;5111497;28;20039;-72
2023/01/06 00:32:51;;;;;;;56.58;29.23;;;;;;;;;;5111063;28;20043;-72
2023/01/06 00:35:17;;;;;;;58.85;30.35;;;;;;;;;;5112218;27;20040;-72
2023/01/06 00:37:43;;;;;;;47.33;28.02;;;;;;;;;;5111928;27;20401;-72
2023/01/06 00:40:09;;;;;;;54.25;28.90;;;;;;;;;;5112564;28;20431;-72
2023/01/06 00:42:35;;;;;;;51.28;28.35;;;;;;;;;;5111882;28;20040;-72
2023/01/06 00:45:01;;;;;;;51.20;29.38;;;;;;;;;;5112604;28;20409;-72
2023/01/06 00:47:27;;;;;;;50.15;27.33;;;;;;;;;;5113439;28;20386;-73
2023/01/06 00:49:53;;;;;;;53.92;29.30;;;;;;;;;;5112760;28;20458;-70
2023/01/06 00:52:19;;;;;;;52.13;28.83;;;;;;;;;;5111659;28;20044;-72
2023/01/06 00:54:45;;;;;;;51.90;28.05;;;;;;;;;;5111665;28;20058;-72
2023/01/06 00:57:12;;;;;;;46.05;26.77;;;;;;;;;;5113930;28;20085;-72
2023/01/06 00:59:38;;;;;;;43.88;25.35;;;;;;;;;;5114194;27;20035;-72
2023/01/06 01:02:04;;;;;;;44.60;25.45;;;;;;;;;;5112072;28;20130;-72
2023/01/06 01:04:30;;;;;;;47.33;26.90;;;;;;;;;;5112382;28;20040;-72
2023/01/06 01:06:56;;;;;;;48.67;26.13;;;;;;;;;;5112362;28;20386;-73
2023/01/06 01:09:24;;;;;;;43.30;25.45;;;;;;;;;;5113329;28;20039;-72
2023/01/06 01:12:10;;;;;;;43.10;24.50;;;;;;;;;;5113279;28;20040;-72
2023/01/06 01:14:47;;;;;;;39.67;24.38;;;;;;;;;;5112824;28;20051;-72
2023/01/06 01:17:14;;;;;;;38.78;22.88;;;;;;;;;;5111659;28;20142;-72
2023/01/06 01:19:41;;;;;;;33.67;22.27;;;;;;;;;;5111083;28;20048;-72
2023/01/06 01:22:07;;;;;;;32.15;21.13;;;;;;;;;;5110405;28;20443;-72
2023/01/06 01:24:34;;;;;;;30.33;19.58;;;;;;;;;;5111403;28;20540;-72
2023/01/06 01:27:00;;;;;;;29.08;19.48;;;;;;;;;;5112216;27;20130;-72
2023/01/06 01:29:26;;;;;;;24.73;16.48;;;;;;;;;;5111727;27;20043;-72
2023/01/06 01:31:53;;;;;;;23.75;16.27;;;;;;;;;;5111404;28;20089;-72
2023/01/06 01:34:19;;;;;;;24.67;16.67;;;;;;;;;;5111199;28;20040;-72
2023/01/06 01:36:46;;;;;;;25.02;15.48;;;;;;;;;;5109367;27;20478;-72
2023/01/06 01:39:14;;;;;;;26.85;15.25;;;;;;;;;;5110917;28;20059;-72
2023/01/06 01:41:40;;;;;;;23.92;14.73;;;;;;;;;;5109611;28;20039;-72
2023/01/06 01:44:24;;;;;;;22.45;14.48;;;;;;;;;;5108154;28;20043;-72
2023/01/06 01:46:51;;;;;;;21.50;14.07;;;;;;;;;;5108250;28;20043;-72
2023/01/06 01:49:18;;;;;;;23.33;14.30;;;;;;;;;;5111960;27;20042;-72
2023/01/06 01:51:46;;;;;;;25.30;14.35;;;;;;;;;;5114291;27;20036;-72
2023/01/06 01:54:14;;;;;;;21.48;13.85;;;;;;;;;;5111738;28;20490;-72
2023/01/06 01:56:44;;;;;;;23.38;13.88;;;;;;;;;;5107804;28;20450;-72
2023/01/06 01:59:16;;;;;;;19.25;13.40;;;;;;;;;;5111838;27;20482;-72
2023/01/06 02:01:42;;;;;;;22.35;13.38;;;;;;;;;;5111135;28;20043;-72
2023/01/06 02:04:08;;;;;;;21.27;13.32;;;;;;;;;;5111025;28;20050;-72
2023/01/06 02:06:34;;;;;;;26.98;14.10;;;;;;;;;;5112307;28;20039;-72
2023/01/06 02:09:10;;;;;;;20.40;12.90;;;;;;;;;;5112262;28;20093;-70
2023/01/06 02:11:37;;;;;;;20.27;11.75;;;;;;;;;;5111377;28;20070;-70
2023/01/06 02:14:06;;;;;;;18.63;12.45;;;;;;;;;;5109569;28;20048;-71
2023/01/06 02:16:32;;;;;;;22.33;12.20;;;;;;;;;;5108597;28;20393;-71
2023/01/06 02:19:01;;;;;;;21.02;12.52;;;;;;;;;;5110956;28;20412;-71
2023/01/06 02:21:30;;;;;;;19.70;11.95;;;;;;;;;;5111962;28;20043;-71
2023/01/06 02:24:06;;;;;;;24.60;12.85;;;;;;;;;;5110246;28;20039;-71
2023/01/06 02:26:35;;;;;;;18.92;11.52;;;;;;;;;;5111277;28;20035;-71
2023/01/06 02:29:30;;;;;;;20.77;11.73;;;;;;;;;;5108469;28;20044;-71
2023/01/06 02:31:59;;;;;;;19.10;11.07;;;;;;;;;;5104171;28;20044;-71
2023/01/06 02:34:48;;;;;;;18.67;10.85;;;;;;;;;;5111281;28;20050;-71
2023/01/06 02:37:37;;;;;;;15.85;10.13;;;;;;;;;;5103992;28;20478;-71
2023/01/06 02:40:22;;;;;;;16.95;10.30;;;;;;;;;;5111599;28;20043;-70
2023/01/06 02:42:51;;;;;;;14.35;9.77;;;;;;;;;;5108132;28;20042;-71
2023/01/06 02:45:19;;;;;;;19.50;9.88;;;;;;;;;;5110084;28;20498;-71
2023/01/06 02:47:56;;;;;;;20.92;9.82;;;;;;;;;;5109664;28;20379;-71
2023/01/06 02:50:25;;;;;;;16.42;9.18;;;;;;;;;;5111381;28;20075;-71
2023/01/06 02:53:05;;;;;;;15.23;9.27;;;;;;;;;;5110890;28;20081;-71
2023/01/06 02:55:31;;;;;;;17.20;8.50;;;;;;;;;;5114736;28;20043;-71
2023/01/06 02:58:00;;;;;;;15.48;8.00;;;;;;;;;;5116979;27;20762;-71
2023/01/06 03:00:50;;;;;;;13.20;8.05;;;;;;;;;;5115810;28;20035;-71
2023/01/06 03:03:19;;;;;;;13.45;8.13;;;;;;;;;;5107792;28;20058;-71
2023/01/06 03:05:47;;;;;;;11.73;7.50;;;;;;;;;;5115977;28;20119;-71
2023/01/06 03:08:17;;;;;;;14.48;8.30;;;;;;;;;;5114222;27;20398;-71
2023/01/06 03:10:44;;;;;;;14.13;8.43;;;;;;;;;;5115742;28;20051;-71
2023/01/06 03:13:27;;;;;;;12.98;7.88;;;;;;;;;;5114984;28;21195;-71
2023/01/06 03:15:53;;;;;;;12.85;7.97;;;;;;;;;;5115782;28;20039;-71
2023/01/06 03:18:19;;;;;;;13.95;7.32;;;;;;;;;;5114949;28;20051;-71
2023/01/06 03:20:47;;;;;;;14.23;7.53;;;;;;;;;;5113851;28;20405;-71
2023/01/06 03:23:14;;;;;;;15.40;7.43;;;;;;;;;;5114023;28;20371;-71
2023/01/06 03:25:40;;;;;;;15.93;7.70;;;;;;;;;;5112411;28;20039;-71
2023/01/06 03:28:06;;;;;;;12.73;8.02;;;;;;;;;;5112573;28;20036;-71
2023/01/06 03:30:37;;;;;;;14.77;8.00;;;;;;;;;;5114870;28;20039;-71
2023/01/06 03:33:11;;;;;;;12.07;8.40;;;;;;;;;;5112803;28;20667;-71
2023/01/06 03:35:49;;;;;;;12.50;8.88;;;;;;;;;;5113455;28;20040;-71
2023/01/06 03:38:15;;;;;;;17.88;9.07;;;;;;;;;;5111143;28;20409;-71
2023/01/06 03:40:45;;;;;;;13.85;9.25;;;;;;;;;;5115318;28;20044;-71
2023/01/06 03:43:20;;;;;;;15.07;9.23;;;;;;;;;;5113324;28;20040;-71
2023/01/06 03:46:18;;;;;;;14.80;9.85;;;;;;;;;;5115051;28;20642;-71
2023/01/06 03:49:05;;;;;;;14.13;9.77;;;;;;;;;;5053289;28;20498;-71
2023/01/06 03:51:34;;;;;;;13.63;9.63;;;;;;;;;;5069500;28;20580;-72
2023/01/06 03:54:00;;;;;;;15.85;10.70;;;;;;;;;;5070495;28;20065;-71
2023/01/06 03:56:33;;;;;;;16.05;10.13;;;;;;;;;;5071510;28;20059;-71
2023/01/06 03:59:02;;;;;;;19.00;10.75;;;;;;;;;;5072154;28;20040;-71
2023/01/06 04:01:29;;;;;;;16.55;11.82;;;;;;;;;;5069690;28;20098;-71
2023/01/06 04:03:55;;;;;;;15.30;12.68;;;;;;;;;;5070627;28;20133;-71
2023/01/06 04:06:23;;;;;;;17.55;13.82;;;;;;;;;;5068399;28;20075;-71
2023/01/06 04:08:49;;;;;;;17.67;14.77;;;;;;;;;;5071039;28;20048;-71
2023/01/06 04:14:00;;;;;;;18.80;16.63;;;;;;;;;;5069827;28;20044;-71
2023/01/06 04:16:26;;;;;;;20.88;16.40;;;;;;;;;;5070773;28;20041;-71
2023/01/06 04:18:52;;;;;;;19.17;16.23;;;;;;;;;;5067985;28;20427;-71
2023/01/06 04:21:18;;;;;;;20.88;16.30;;;;;;;;;;5070923;28;20431;-71
2023/01/06 04:23:44;;;;;;;21.00;16.25;;;;;;;;;;5078276;28;20070;-71
2023/01/06 04:26:11;;;;;;;19.60;15.35;;;;;;;;;;5112686;28;20047;-71
2023/01/06 04:28:37;;;;;;;18.48;14.82;;;;;;;;;;5111999;28;20039;-71
2023/01/06 04:31:03;;;;;;;20.33;14.57;;;;;;;;;;5113717;28;20532;-71
2023/01/06 04:33:29;;;;;;;16.27;13.68;;;;;;;;;;5113081;28;20048;-70
2023/01/06 04:35:55;;;;;;;19.00;14.13;;;;;;;;;;5113439;28;20101;-71
2023/01/06 04:38:21;;;;;;;15.57;12.98;;;;;;;;;;5112437;28;20412;-71
2023/01/06 04:40:47;;;;;;;14.23;12.40;;;;;;;;;;5111234;28;20048;-71
2023/01/06 04:43:15;;;;;;;15.15;12.43;;;;;;;;;;5113091;28;20043;-71
2023/01/06 04:45:41;;;;;;;14.38;12.45;;;;;;;;;;5111692;28;20050;-72
2023/01/06 04:48:08;;;;;;;16.33;12.35;;;;;;;;;;5114274;28;20046;-71
2023/01/06 04:50:34;;;;;;;14.70;11.85;;;;;;;;;;5112792;28;20032;-71
2023/01/06 04:53:00;;;;;;;15.20;11.57;;;;;;;;;;5112191;28;20104;-71
2023/01/06 04:55:26;;;;;;;14.38;11.02;;;;;;;;;;5112508;28;20043;-71
2023/01/06 04:57:53;;;;;;;15.07;10.50;;;;;;;;;;5113979;28;20032;-71
2023/01/06 05:00:19;;;;;;;13.13;10.60;;;;;;;;;;5113912;28;20054;-73
2023/01/06 05:02:45;;;;;;;13.63;9.63;;;;;;;;;;5112533;28;20048;-73
2023/01/06 05:05:12;;;;;;;13.05;9.60;;;;;;;;;;5112395;28;20126;-72
2023/01/06 05:07:38;;;;;;;12.25;9.23;;;;;;;;;;5113630;27;20039;-72
2023/01/06 05:10:07;;;;;;;12.82;9.10;;;;;;;;;;5113574;28;20462;-72
2023/01/06 05:12:33;;;;;;;12.57;9.25;;;;;;;;;;5112803;28;20401;-73
2023/01/06 05:15:00;;;;;;;13.70;8.95;;;;;;;;;;5110741;27;20052;-71
2023/01/06 05:17:26;;;;;;;12.38;8.10;;;;;;;;;;5111960;27;20040;-71
2023/01/06 05:19:52;;;;;;;9.88;7.50;;;;;;;;;;5108761;27;20039;-71
2023/01/06 05:22:18;;;;;;;10.88;7.40;;;;;;;;;;5112422;28;20570;-71
2023/01/06 05:24:44;;;;;;;10.85;7.20;;;;;;;;;;5109739;28;20051;-71
2023/01/06 05:27:10;;;;;;;11.18;7.18;;;;;;;;;;5110927;28;20122;-71
2023/01/06 05:29:37;;;;;;;9.25;6.45;;;;;;;;;;5111217;28;20044;-71
2023/01/06 05:32:03;;;;;;;12.68;6.22;;;;;;;;;;5111692;28;20043;-71
2023/01/06 05:34:30;;;;;;;9.68;5.65;;;;;;;;;;5111625;28;20043;-71
2023/01/06 05:36:56;;;;;;;8.27;5.43;;;;;;;;;;5110873;28;20035;-71
2023/01/06 05:39:22;;;;;;;8.38;5.40;;;;;;;;;;5110089;28;20035;-70
2023/01/06 05:41:48;;;;;;;8.45;5.30;;;;;;;;;;5110353;27;20043;-71
2023/01/06 05:44:14;;;;;;;10.68;5.20;;;;;;;;;;5112195;28;20084;-71
2023/01/06 05:46:40;;;;;;;10.48;5.05;;;;;;;;;;5112056;28;20488;-71
2023/01/06 05:49:06;;;;;;;11.25;5.50;;;;;;;;;;5111764;28;20035;-71
2023/01/06 05:51:32;;;;;;;8.07;4.90;;;;;;;;;;5106393;27;20047;-72
2023/01/06 05:53:58;;;;;;;8.82;5.30;;;;;;;;;;5109877;28;20044;-71
2023/01/06 05:56:24;;;;;;;10.80;5.22;;;;;;;;;;5110429;28;20422;-71
2023/01/06 05:58:52;;;;;;;10.18;5.57;;;;;;;;;;5111898;28;20044;-71
2023/01/06 06:01:19;;;;;;;7.25;4.70;;;;;;;;;;5109946;28;20123;-72
2023/01/06 06:03:45;;;;;;;8.35;5.30;;;;;;;;;;5112053;28;20109;-72
2023/01/06 06:06:12;;;;;;;9.73;5.00;;;;;;;;;;5111697;28;20038;-73
2023/01/06 06:08:38;;;;;;;9.82;4.97;;;;;;;;;;5110339;28;20043;-71
2023/01/06 06:11:08;;;;;;;8.63;5.00;;;;;;;;;;5109764;28;20039;-70
2023/01/06 06:13:34;;;;;;;8.50;5.35;;;;;;;;;;5108002;28;20032;-70
2023/01/06 06:16:03;;;;;;;12.60;6.10;;;;;;;;;;5111713;28;20031;-72
2023/01/06 06:18:29;;;;;;;7.13;4.95;;;;;;;;;;5109944;28;20509;-71
2023/01/06 06:20:59;;;;;;;9.80;5.65;;;;;;;;;;5110216;28;20042;-71
2023/01/06 06:23:25;;;;;;;12.45;5.60;;;;;;;;;;5110651;28;20043;-71
2023/01/06 06:25:51;;;;;;;10.65;5.18;;;;;;;;;;5106662;28;20524;-71
2023/01/06 06:28:17;;;;;;;8.23;4.90;;;;;;;;;;5108964;28;20449;-71
2023/01/06 06:30:43;;;;;;;8.40;4.70;;;;;;;;;;5099717;28;20044;-72
2023/01/06 06:33:10;;;;;;;9.90;5.13;;;;;;;;;;5113069;28;20044;-71
2023/01/06 06:35:36;;;;;;;7.93;4.75;;;;;;;;;;5110966;28;20039;-71
2023/01/06 06:38:02;;;;;;;8.60;4.90;;;;;;;;;;5113723;28;20050;-72
2023/01/06 06:40:28;;;;;;;9.50;4.65;;;;;;;;;;5109569;28;20048;-71
2023/01/06 06:42:54;;;;;;;9.38;4.40;;;;;;;;;;5105937;28;20092;-71
2023/01/06 06:45:20;;;;;;;8.73;5.10;;;;;;;;;;5108030;28;20047;-71
2023/01/06 06:47:46;;;;;;;9.00;4.80;;;;;;;;;;5107295;28;20494;-72
2023/01/06 06:50:12;;;;;;;7.88;4.40;;;;;;;;;;5110850;28;20036;-71
2023/01/06 06:52:38;;;;;;;10.25;4.57;;;;;;;;;;5104476;28;20048;-71
2023/01/06 06:55:05;;;;;;;7.68;4.47;;;;;;;;;;5111443;28;20043;-71
2023/01/06 06:57:31;;;;;;;8.15;4.55;;;;;;;;;;5111891;28;20047;-71
2023/01/06 06:59:57;;;;;;;8.07;5.03;;;;;;;;;;5111259;28;20446;-71
2023/01/06 07:02:23;;;;;;;9.90;4.90;;;;;;;;;;5109967;28;20062;-71
2023/01/06 07:04:49;;;;;;;8.18;4.70;;;;;;;;;;5111884;28;20048;-71
2023/01/06 07:07:15;;;;;;;9.27;5.25;;;;;;;;;;5111772;28;20115;-72
2023/01/06 07:09:41;;;;;;;7.82;4.65;;;;;;;;;;5108548;28;20378;-72
2023/01/06 07:12:07;;;;;;;11.82;5.57;;;;;;;;;;5109177;28;20050;-73
2023/01/06 07:14:33;;;;;;;8.95;5.05;;;;;;;;;;5109611;28;20043;-72
2023/01/06 07:17:01;;;;;;;10.02;5.88;;;;;;;;;;5109620;28;20039;-71
2023/01/06 07:19:27;;;;;;;10.43;5.97;;;;;;;;;;5111884;28;20164;-71
2023/01/06 07:21:53;;;;;;;11.25;6.43;;;;;;;;;;5109698;28;20413;-72
2023/01/06 07:24:19;;;;;;;9.88;5.85;;;;;;;;;;5106320;28;20052;-71
2023/01/06 07:26:45;;;;;;;10.15;6.15;;;;;;;;;;5105601;28;20043;-70
2023/01/06 07:29:11;;;;;;;9.85;6.07;;;;;;;;;;5102672;28;20035;-71
2023/01/06 07:31:37;;;;;;;11.55;6.93;;;;;;;;;;5102159;28;20493;-71
2023/01/06 07:34:03;;;;;;;10.27;6.47;;;;;;;;;;5107549;28;20047;-71
2023/01/06 07:36:29;;;;;;;8.27;6.13;;;;;;;;;;5107941;28;20050;-71
2023/01/06 07:38:55;;;;;;;10.73;6.95;;;;;;;;;;5109900;28;20040;-71
2023/01/06 07:41:21;;;;;;;12.50;8.02;;;;;;;;;;5109382;28;20031;-71
2023/01/06 07:43:47;;;;;;;11.25;6.88;;;;;;;;;;5109502;28;20071;-71
2023/01/06 07:46:14;;;;;;;12.40;7.35;;;;;;;;;;5114308;28;20117;-70
2023/01/06 07:48:40;;;;;;;9.50;6.93;;;;;;;;;;5113922;27;20052;-71
2023/01/06 07:51:06;;;;;;;10.57;6.93;;;;;;;;;;5109792;27;20157;-70
2023/01/06 07:53:32;;;;;;;9.73;8.00;;;;;;;;;;5109758;28;20044;-70
2023/01/06 07:55:58;;;;;;;8.30;7.03;;;;;;;;;;5109144;28;20485;-71
2023/01/06 07:58:24;;;;;;;10.82;7.63;;;;;;;;;;5112343;28;20048;-71
2023/01/06 08:00:50;;;;;;;10.50;7.07;;;;;;;;;;5111819;28;20044;-71
2023/01/06 08:03:17;;;;;;;8.93;6.65;;;;;;;;;;5111285;28;20063;-71
2023/01/06 08:05:43;;;;;;;9.07;6.90;;;;;;;;;;5106320;27;20051;-71
2023/01/06 08:08:09;;;;;;;10.20;7.32;;;;;;;;;;5108155;28;20099;-71
2023/01/06 08:10:38;;;;;;;9.63;7.10;;;;;;;;;;5110435;28;20044;-71
2023/01/06 08:13:04;;;;;;;7.88;5.93;;;;;;;;;;5112030;27;20487;-71
2023/01/06 08:15:31;;;;;;;8.95;6.10;;;;;;;;;;5109335;27;20048;-71
2023/01/06 08:17:57;;;;;;;7.05;5.15;;;;;;;;;;5113647;27;20047;-72
2023/01/06 08:20:23;;;;;;;8.13;5.43;;;;;;;;;;5111559;28;20043;-72
2023/01/06 08:22:49;;;;;;;7.68;5.18;;;;;;;;;;5114489;27;20044;-72
2023/01/06 08:25:15;;;;;;;6.13;3.72;;;;;;;;;;5112906;27;20063;-71
2023/01/06 08:27:41;;;;;;;5.60;2.70;;;;;;;;;;5108301;27;20040;-72
2023/01/06 08:30:08;;;;;;;5.85;3.00;;;;;;;;;;5111421;28;20453;-71
2023/01/06 08:32:34;;;;;;;4.95;2.50;;;;;;;;;;5111653;27;20415;-71
2023/01/06 08:35:03;;;;;;;4.88;2.25;;;;;;;;;;5110491;28;20051;-71
2023/01/06 08:37:29;;;;;;;8.25;2.08;;;;;;;;;;5111159;28;20109;-73
2023/01/06 08:39:55;;;;;;;7.70;2.15;;;;;;;;;;5111600;28;20050;-72
2023/01/06 08:42:21;;;;;;;4.88;1.67;;;;;;;;;;5106860;27;20043;-73
2023/01/06 08:44:47;;;;;;;5.03;1.42;;;;;;;;;;5112288;27;20509;-73
2023/01/06 08:47:13;;;;;;;6.38;1.48;;;;;;;;;;5107112;28;20065;-74
2023/01/06 08:49:39;;;;;;;6.72;1.60;;;;;;;;;;5112515;28;20046;-75
2023/01/06 08:52:06;;;;;;;6.68;1.35;;;;;;;;;;5109798;28;20039;-73
2023/01/06 08:54:32;;;;;;;7.90;1.23;;;;;;;;;;5111539;28;20509;-73
2023/01/06 08:56:58;;;;;;;7.03;1.27;;;;;;;;;;5107658;28;20044;-72
2023/01/06 08:59:24;;;;;;;5.10;1.13;;;;;;;;;;5106596;28;20059;-72
2023/01/06 09:01:50;;;;;;;6.75;1.20;;;;;;;;;;5110516;27;20039;-73
2023/01/06 09:04:16;;;;;;;4.53;1.20;;;;;;;;;;5105592;28;20063;-73
2023/01/06 09:06:43;;;;;;;5.97;1.10;;;;;;;;;;5110111;28;20055;-73
2023/01/06 09:09:13;;;;;;;4.35;1.25;;;;;;;;;;5115215;28;20044;-73
2023/01/06 09:11:42;;;;;;;6.03;1.20;;;;;;;;;;5111161;28;20047;-73
2023/01/06 09:14:09;;;;;;;6.00;0.90;;;;;;;;;;5108338;28;20124;-73
2023/01/06 09:16:35;;;;;;;7.10;1.00;;;;;;;;;;5113699;27;20039;-72
2023/01/06 09:19:01;;;;;;;7.45;1.20;;;;;;;;;;5110734;28;20051;-73
2023/01/06 09:21:28;;;;;;;8.43;1.23;;;;;;;;;;5111357;28;20054;-72
2023/01/06 09:23:54;;;;;;;7.60;1.45;;;;;;;;;;5103251;27;20075;-71
2023/01/06 09:26:20;;;;;;;7.13;1.30;;;;;;;;;;5100974;28;20052;-72
2023/01/06 09:28:46;;;;;;;5.97;1.00;;;;;;;;;;5110870;28;20043;-72
2023/01/06 09:31:12;;;;;;;7.38;1.00;;;;;;;;;;5102820;28;20040;-71
2023/01/06 09:33:39;;;;;;;5.22;1.10;;;;;;;;;;5103191;28;20044;-72
2023/01/06 09:36:06;;;;;;;6.43;1.02;;;;;;;;;;5112919;28;20066;-71
2023/01/06 09:38:32;;;;;;;5.05;1.10;;;;;;;;;;5113193;28;20043;-71
2023/01/06 09:41:11;;;;;;;6.78;1.00;;;;;;;;;;5111870;27;20051;-72
2023/01/06 09:43:40;;;;;;;7.40;1.10;;;;;;;;;;5112526;28;20048;-72
2023/01/06 09:46:08;;;;;;;6.68;1.10;;;;;;;;;;5108711;28;20459;-71
2023/01/06 09:48:37;;;;;;;6.72;0.98;;;;;;;;;;5109044;27;20074;-72
2023/01/06 09:51:05;;;;;;;7.07;1.10;;;;;;;;;;5101433;28;20085;-71
2023/01/06 09:53:37;;;;;;;5.65;0.98;;;;;;;;;;5107162;28;20058;-71
2023/01/06 09:56:05;;;;;;;6.43;1.10;;;;;;;;;;5101819;28;20428;-72
2023/01/06 09:58:38;;;;;;;7.78;0.88;;;;;;;;;;5100709;27;20039;-72
2023/01/06 10:01:09;;;;;;;7.10;1.30;;;;;;;;;;5110016;28;20085;-72
2023/01/06 10:03:35;;;;;;;9.40;1.10;;;;;;;;;;5093828;28;20075;-72
2023/01/06 10:06:01;;;;;;;10.52;1.80;;;;;;;;;;5112890;28;20058;-73
2023/01/06 10:08:32;;;;;;;9.23;1.27;;;;;;;;;;5093636;28;20048;-72
2023/01/06 10:11:04;;;;;;;8.07;1.10;;;;;;;;;;5106639;28;20046;-73
2023/01/06 10:13:42;;;;;;;7.57;1.20;;;;;;;;;;5102578;28;20040;-72
2023/01/06 10:16:27;;;;;;;7.43;1.35;;;;;;;;;;5101683;28;20401;-72
2023/01/06 10:19:08;;;;;;;8.90;1.50;;;;;;;;;;5110165;28;20050;-73
2023/01/06 10:21:41;;;;;;;9.32;1.65;;;;;;;;;;5097608;28;20105;-72
2023/01/06 10:24:16;;;;;;;8.18;1.17;;;;;;;;;;5109022;28;20043;-71
2023/01/06 10:26:43;;;;;;;9.55;1.50;;;;;;;;;;5105095;28;20040;-71
2023/01/06 10:29:15;;;;;;;7.50;1.05;;;;;;;;;;5103063;28;20064;-71
2023/01/06 10:31:43;;;;;;;10.13;1.50;;;;;;;;;;5095781;28;20108;-71
2023/01/06 10:34:17;;;;;;;11.63;1.35;;;;;;;;;;5103487;28;20044;-71
2023/01/06 10:36:45;;;;;;;6.80;1.23;;;;;;;;;;5110622;28;20043;-71
2023/01/06 10:39:19;;;;;;;11.52;1.75;;;;;;;;;;5111442;28;20374;-71
2023/01/06 10:41:49;;;;;;;7.32;1.00;;;;;;;;;;5108062;28;20089;-71
2023/01/06 10:44:17;;;;;;;14.43;1.30;;;;;;;;;;5102700;28;20099;-71
2023/01/06 10:46:44;;;;;;;8.35;1.20;;;;;;;;;;5110035;28;20490;-70
2023/01/06 10:49:21;;;;;;;8.88;1.67;;;;;;;;;;5110647;28;20443;-71
2023/01/06 10:51:56;;;;;;;10.32;1.25;;;;;;;;;;5111375;28;20059;-71
2023/01/06 10:54:32;;;;;;;9.63;1.33;;;;;;;;;;5095803;28;20054;-70
2023/01/06 10:57:02;;;;;;;11.30;1.45;;;;;;;;;;5115878;27;20404;-70
2023/01/06 10:59:29;;;;;;;9.52;1.52;;;;;;;;;;5109314;28;20055;-70
2023/01/06 11:01:56;;;;;;;12.77;1.58;;;;;;;;;;5104883;28;20051;-71
2023/01/06 11:04:22;;;;;;;10.55;1.55;;;;;;;;;;5093943;28;20463;-71
2023/01/06 11:06:50;;;;;;;13.05;1.90;;;;;;;;;;5109743;28;20051;-71
2023/01/06 11:09:31;;;;;;;11.90;1.75;;;;;;;;;;5111466;28;20500;-71
2023/01/06 11:11:59;;;;;;;9.45;1.60;;;;;;;;;;5106976;28;20067;-71
2023/01/06 11:14:28;;;;;;;12.38;1.90;;;;;;;;;;5109289;28;20447;-71
2023/01/06 11:16:56;;;;;;;9.70;1.80;;;;;;;;;;5121805;27;20450;-72
2023/01/06 11:19:33;;;;;;;10.13;1.40;;;;;;;;;;5108991;27;20047;-71
2023/01/06 11:21:59;;;;;;;7.65;1.40;;;;;;;;;;5113482;28;20051;-71
2023/01/06 11:24:26;;;;;;;10.70;1.92;;;;;;;;;;5117323;27;20489;-73
2023/01/06 11:26:55;;;;;;;10.75;1.67;;;;;;;;;;5114973;27;20501;-72
2023/01/06 11:29:29;;;;;;;9.40;1.58;;;;;;;;;;5109158;27;20048;-73
2023/01/06 11:31:56;;;;;;;13.60;2.15;;;;;;;;;;5097610;27;20044;-72
2023/01/06 11:34:24;;;;;;;13.00;1.77;;;;;;;;;;5113298;28;20109;-72
2023/01/06 11:36:50;;;;;;;10.60;1.77;;;;;;;;;;5101147;27;20040;-72
2023/01/06 11:39:23;;;;;;;14.77;1.90;;;;;;;;;;5106659;27;20405;-72
2023/01/06 11:41:51;;;;;;;12.13;1.65;;;;;;;;;;5102863;28;20096;-72
2023/01/06 11:44:18;;;;;;;9.27;1.40;;;;;;;;;;5099861;27;20059;-72
2023/01/06 11:46:48;;;;;;;12.10;1.63;;;;;;;;;;5109314;28;20091;-72
2023/01/06 11:49:16;;;;;;;11.15;1.98;;;;;;;;;;5109702;28;20045;-72
2023/01/06 11:51:42;;;;;;;11.70;1.77;;;;;;;;;;5112386;27;20043;-72
2023/01/06 11:54:21;;;;;;;15.48;2.35;;;;;;;;;;5113511;28;20398;-72
2023/01/06 11:56:57;;;;;;;10.93;1.90;;;;;;;;;;5112520;27;20036;-72
2023/01/06 11:59:24;;;;;;;10.10;1.27;;;;;;;;;;5105077;28;20075;-72
2023/01/06 12:02:01;;;;;;;13.55;1.88;;;;;;;;;;5106102;28;20040;-72
2023/01/06 12:04:27;;;;;;;8.50;1.60;;;;;;;;;;5111535;28;20478;-72
2023/01/06 12:06:56;;;;;;;9.40;1.55;;;;;;;;;;5097727;28;20048;-72
2023/01/06 12:09:25;;;;;;;12.02;2.05;;;;;;;;;;5094509;28;20040;-72
2023/01/06 12:11:52;;;;;;;9.55;1.55;;;;;;;;;;5100043;28;20047;-72
2023/01/06 12:14:19;;;;;;;11.88;1.95;;;;;;;;;;5105923;28;20522;-72
2023/01/06 12:16:45;;;;;;;10.77;1.50;;;;;;;;;;5110946;28;20095;-72
2023/01/06 12:19:18;;;;;;;11.60;1.60;;;;;;;;;;5111569;27;20051;-73
2023/01/06 12:21:44;;;;;;;8.35;1.63;;;;;;;;;;5103446;28;20039;-72
2023/01/06 12:24:13;;;;;;;9.10;1.63;;;;;;;;;;5094237;27;20048;-72
2023/01/06 12:26:40;;;;;;;14.25;2.08;;;;;;;;;;5094469;28;20048;-73
2023/01/06 12:29:06;;;;;;;14.52;2.10;;;;;;;;;;5101449;27;20051;-72
2023/01/06 12:31:48;;;;;;;8.15;1.50;;;;;;;;;;5110717;28;20115;-72
2023/01/06 12:34:23;;;;;;;11.95;1.83;;;;;;;;;;5110808;28;20047;-72
2023/01/06 12:37:08;;;;;;;8.23;1.50;;;;;;;;;;5100228;27;20043;-73
2023/01/06 12:39:49;;;;;;;10.20;1.88;;;;;;;;;;5111150;27;20036;-72
2023/01/06 12:42:18;;;;;;;12.98;2.10;;;;;;;;;;5102545;27;20040;-73
2023/01/06 12:44:50;;;;;;;11.68;1.60;;;;;;;;;;5118415;27;20043;-72
2023/01/06 12:47:39;;;;;;;8.80;1.65;;;;;;;;;;5099217;27;20508;-77
2023/01/06 12:50:08;;;;;;;11.50;1.63;;;;;;;;;;5096625;28;20036;-71
2023/01/06 12:53:03;;;;;;;11.65;1.40;;;;;;;;;;5107395;27;20043;-72
2023/01/06 12:55:52;;;;;;;13.95;1.60;;;;;;;;;;5097163;28;20055;-73
2023/01/06 12:58:25;;;;;;;15.15;2.25;;;;;;;;;;5095988;27;20051;-73
2023/01/06 13:00:51;;;;;;;15.48;1.92;;;;;;;;;;5106088;28;20044;-72
2023/01/06 13:03:20;;;;;;;13.40;1.90;;;;;;;;;;5099089;28;20071;-72
2023/01/06 13:05:46;;;;;;;9.68;2.00;;;;;;;;;;5110349;28;20511;-72
2023/01/06 13:08:12;;;;;;;11.10;1.60;;;;;;;;;;5111148;28;20500;-72
2023/01/06 13:11:05;;;;;;;10.40;2.00;;;;;;;;;;5098233;27;20114;-72
2023/01/06 13:13:40;;;;;;;9.32;1.58;;;;;;;;;;5103046;27;20448;-72
2023/01/06 13:16:13;;;;;;;11.57;1.58;;;;;;;;;;5107794;28;20042;-72
2023/01/06 13:18:45;;;;;;;11.57;1.90;;;;;;;;;;5078412;28;20051;-72
2023/01/06 13:21:11;;;;;;;;;;;;;;;;;;5112727;27;20043;-72
2023/01/06 13:23:46;;;;;;;13.75;2.00;;;;;;;;;;5113156;27;20011;-73
2023/01/06 13:26:15;;;;;;;17.05;2.40;;;;;;;;;;5114244;27;20048;-72
2023/01/06 13:28:50;;;;;;;13.75;1.77;;;;;;;;;;5113475;27;20512;-72
2023/01/06 13:31:28;;;;;;;11.93;2.00;;;;;;;;;;5111094;27;20047;-72
2023/01/06 13:33:54;;;;;;;10.82;1.60;;;;;;;;;;5103425;28;20043;-72
2023/01/06 13:36:26;;;;;;;16.65;4.53;;;;;;;;;;5109257;28;20044;-72
2023/01/06 13:38:57;;;;;;;10.25;1.77;;;;;;;;;;5119007;27;20043;-72
2023/01/06 13:41:29;;;;;;;9.20;2.42;;;;;;;;;;5108549;28;20537;-72
2023/01/06 13:43:57;;;;;;;10.48;2.00;;;;;;;;;;5107285;28;20104;-72
2023/01/06 13:46:23;;;;;;;11.70;1.70;;;;;;;;;;5097486;28;20040;-72
2023/01/06 13:48:52;;;;;;;11.70;2.40;;;;;;;;;;5091328;28;20048;-72
2023/01/06 13:51:20;;;;;;;11.30;1.88;;;;;;;;;;5098368;28;20088;-72
2023/01/06 13:53:49;;;;;;;11.80;1.83;;;;;;;;;;5106156;28;20040;-72
2023/01/06 13:56:15;;;;;;;9.88;2.10;;;;;;;;;;5098390;28;20047;-72
2023/01/06 13:58:45;;;;;;;11.82;2.80;;;;;;;;;;5107384;27;20044;-72
2023/01/06 14:01:12;;;;;;;13.77;2.20;;;;;;;;;;5095486;27;20090;-72
2023/01/06 14:03:39;;;;;;;17.40;2.42;;;;;;;;;;5087170;27;20771;-73
2023/01/06 14:06:09;;;;;;;10.90;2.15;;;;;;;;;;5089698;28;20051;-73
2023/01/06 14:08:40;;;;;;;8.90;2.00;;;;;;;;;;5092422;28;20472;-72
2023/01/06 14:11:21;;;;;;;16.25;2.90;;;;;;;;;;5089189;28;20039;-72
2023/01/06 14:13:52;;;;;;;12.68;2.25;;;;;;;;;;5106745;28;20104;-72
2023/01/06 14:16:18;;;;;;;9.75;2.03;;;;;;;;;;5109057;27;20048;-72
2023/01/06 14:18:46;;;;;;;12.25;2.88;;;;;;;;;;5099521;28;20430;-72
2023/01/06 14:21:12;;;;;;;10.73;2.30;;;;;;;;;;5105501;28;20134;-71
2023/01/06 14:23:39;;;;;;;12.55;3.33;;;;;;;;;;5106272;28;20047;-72
2023/01/06 14:26:05;;;;;;;15.27;2.90;;;;;;;;;;5112195;28;20055;-72
2023/01/06 14:28:33;;;;;;;15.88;2.58;;;;;;;;;;5109891;28;20096;-73
2023/01/06 14:31:18;;;;;;;12.73;2.10;;;;;;;;;;5108093;28;20043;-72
2023/01/06 14:33:44;;;;;;;17.10;2.70;;;;;;;;;;5110352;28;20416;-74
2023/01/06 14:36:14;;;;;;;12.57;2.53;;;;;;;;;;5108640;28;20397;-73
2023/01/06 14:38:44;;;;;;;14.43;2.35;;;;;;;;;;5110702;28;20039;-73
2023/01/06 14:41:20;;;;;;;9.57;2.20;;;;;;;;;;5112306;28;20043;-73
2023/01/06 14:44:00;;;;;;;11.23;2.25;;;;;;;;;;5116792;27;20409;-74